Time;durP1;ratioP1;P1;durP2;ratioP2;P2;SDS_P1;SDS_P2;PMS_P1;PMS_P2;Temp;Humidity;BMP_temperature;BMP_pressure;BME280_temperature;BME280_humidity;BME280_pressure;Samples;Min_cycle;Max_cycle;Signal;HPM_P1;HPM_P2
2022/01/26 00:06:27;;;;;;;170.95;47.67;;;;;;;;;;4922182;29;20073;-77
2022/01/26 00:08:54;;;;;;;153.65;46.67;;;;;;;;;;4908594;29;20134;-77
2022/01/26 00:11:21;;;;;;;155.70;46.47;;;;;;;;;;4923049;29;20051;-77
2022/01/26 00:13:47;;;;;;;167.88;47.03;;;;;;;;;;4923103;29;20376;-77
2022/01/26 00:16:25;;;;;;;148.90;45.13;;;;;;;;;;4939487;29;20054;-77
2022/01/26 00:18:54;;;;;;;156.88;44.88;;;;;;;;;;4918581;29;20048;-77
2022/01/26 00:29:20;;;;;;;169.00;46.50;;;;;;;;;;4918901;29;20092;-75
2022/01/26 00:40:17;;;;;;;153.63;44.28;;;;;;;;;;4926891;29;20044;-78
2022/01/26 00:42:45;;;;;;;164.13;45.42;;;;;;;;;;4920956;29;20579;-80
2022/01/26 00:45:12;;;;;;;152.48;44.83;;;;;;;;;;4909716;29;20509;-80
2022/01/26 00:47:38;;;;;;;146.65;45.60;;;;;;;;;;4907019;29;20067;-79
2022/01/26 00:50:09;;;;;;;163.32;49.50;;;;;;;;;;4905859;29;20043;-80
2022/01/26 00:52:44;;;;;;;156.95;45.78;;;;;;;;;;4925201;28;20102;-79
2022/01/26 00:55:12;;;;;;;155.82;46.65;;;;;;;;;;4908939;29;20057;-80
2022/01/26 00:57:38;;;;;;;158.63;46.28;;;;;;;;;;4925283;29;20056;-78
2022/01/26 01:00:08;;;;;;;157.88;44.97;;;;;;;;;;4924419;29;20047;-78
2022/01/26 01:02:34;;;;;;;162.82;48.63;;;;;;;;;;4926457;29;20051;-78
2022/01/26 01:05:06;;;;;;;153.13;45.70;;;;;;;;;;4930856;29;20487;-78
2022/01/26 01:07:36;;;;;;;154.95;43.25;;;;;;;;;;4919593;29;20141;-77
2022/01/26 01:10:02;;;;;;;156.18;45.47;;;;;;;;;;4941020;29;20080;-78
2022/01/26 01:12:29;;;;;;;151.93;46.67;;;;;;;;;;4927883;29;20143;-78
2022/01/26 01:14:55;;;;;;;154.57;44.03;;;;;;;;;;4928427;29;20126;-78
2022/01/26 01:17:25;;;;;;;137.70;41.63;;;;;;;;;;4913327;29;20048;-78
2022/01/26 01:20:12;;;;;;;144.55;43.70;;;;;;;;;;4915261;29;20082;-77
2022/01/26 01:22:51;;;;;;;168.35;45.13;;;;;;;;;;4902499;29;20067;-78
2022/01/26 01:30:52;;;;;;;141.23;42.85;;;;;;;;;;4927620;29;19930;-78
2022/01/26 01:33:24;;;;;;;157.63;44.03;;;;;;;;;;4927318;29;20083;-78
2022/01/26 01:35:52;;;;;;;156.80;44.70;;;;;;;;;;4927266;29;20743;-77
2022/01/26 01:38:20;;;;;;;147.75;42.70;;;;;;;;;;4902074;29;20055;-78
2022/01/26 01:40:47;;;;;;;143.88;41.90;;;;;;;;;;4917393;29;20047;-77
2022/01/26 01:43:15;;;;;;;139.32;42.65;;;;;;;;;;4915638;29;20066;-78
2022/01/26 01:45:45;;;;;;;139.57;42.08;;;;;;;;;;4910844;29;20044;-78
2022/01/26 01:48:13;;;;;;;139.82;41.25;;;;;;;;;;4940822;29;20388;-77
2022/01/26 01:50:41;;;;;;;147.68;43.22;;;;;;;;;;4906307;29;20051;-78
2022/01/26 01:53:11;;;;;;;139.10;41.78;;;;;;;;;;4933426;29;20059;-78
2022/01/26 01:55:41;;;;;;;154.80;43.47;;;;;;;;;;4924723;29;20142;-78
2022/01/26 01:58:08;;;;;;;146.35;43.25;;;;;;;;;;4927017;29;20158;-77
2022/01/26 02:00:35;;;;;;;157.55;45.60;;;;;;;;;;4941285;29;20144;-77
2022/01/26 02:03:01;;;;;;;153.20;45.42;;;;;;;;;;4947675;29;20124;-78
2022/01/26 02:05:27;;;;;;;145.63;44.13;;;;;;;;;;4923348;29;20090;-77
2022/01/26 02:07:53;;;;;;;147.27;45.15;;;;;;;;;;4936226;29;20077;-77
2022/01/26 02:10:22;;;;;;;145.13;46.30;;;;;;;;;;4910773;29;20062;-78
2022/01/26 02:12:52;;;;;;;152.68;44.90;;;;;;;;;;4909081;29;20565;-77
2022/01/26 02:15:27;;;;;;;138.40;44.00;;;;;;;;;;4924344;29;20137;-77
2022/01/26 02:18:25;;;;;;;150.07;47.15;;;;;;;;;;4911023;29;20402;-77
2022/01/26 02:56:20;;;;;;;145.23;44.85;;;;;;;;;;4934031;29;20522;-78
2022/01/26 03:03:44;;;;;;;148.70;48.20;;;;;;;;;;4931251;29;20109;-77
2022/01/26 03:06:18;;;;;;;140.38;45.85;;;;;;;;;;4924453;29;20870;-77
2022/01/26 03:08:51;;;;;;;;;;;;;;;;;;4925817;28;20048;-78
2022/01/26 03:11:18;;;;;;;137.75;44.92;;;;;;;;;;4926144;29;19929;-77
2022/01/26 03:13:53;;;;;;;131.90;45.25;;;;;;;;;;4942327;28;20105;-78
2022/01/26 03:16:29;;;;;;;143.70;45.00;;;;;;;;;;4924191;29;20048;-77
2022/01/26 03:19:15;;;;;;;134.85;45.47;;;;;;;;;;4911851;29;20073;-77
2022/01/26 03:22:13;;;;;;;130.48;44.28;;;;;;;;;;4930257;28;20063;-77
2022/01/26 03:30:05;;;;;;;149.43;46.35;;;;;;;;;;4947196;28;20521;-76
2022/01/26 03:35:26;;;;;;;139.13;44.90;;;;;;;;;;4922101;29;20050;-77
2022/01/26 03:37:55;;;;;;;122.28;43.33;;;;;;;;;;4926026;29;20062;-77
2022/01/26 03:40:29;;;;;;;123.35;41.92;;;;;;;;;;4927604;29;20467;-77
2022/01/26 03:42:56;;;;;;;112.63;39.42;;;;;;;;;;4925649;29;20432;-77
2022/01/26 03:45:22;;;;;;;123.80;42.35;;;;;;;;;;4928307;29;20044;-77
2022/01/26 03:47:48;;;;;;;118.78;42.55;;;;;;;;;;4925709;29;20054;-77
2022/01/26 03:50:14;;;;;;;107.72;40.50;;;;;;;;;;4942890;29;20130;-77
2022/01/26 03:52:40;;;;;;;117.35;40.30;;;;;;;;;;4920993;29;20039;-77
2022/01/26 03:55:06;;;;;;;118.88;41.92;;;;;;;;;;4931104;29;20444;-77
2022/01/26 03:57:32;;;;;;;107.82;39.45;;;;;;;;;;4940172;29;20065;-77
2022/01/26 03:59:58;;;;;;;114.40;38.70;;;;;;;;;;4906512;29;20047;-77
2022/01/26 04:02:24;;;;;;;116.82;39.65;;;;;;;;;;4931688;29;20050;-77
2022/01/26 04:04:56;;;;;;;108.55;38.38;;;;;;;;;;4927601;29;20047;-77
2022/01/26 04:07:23;;;;;;;115.53;40.55;;;;;;;;;;4924810;29;20046;-77
2022/01/26 04:09:49;;;;;;;109.40;39.38;;;;;;;;;;4928594;29;20063;-77
2022/01/26 04:12:15;;;;;;;99.68;38.53;;;;;;;;;;4925550;29;20288;-77
2022/01/26 04:14:46;;;;;;;105.80;38.63;;;;;;;;;;4922503;29;20167;-77
2022/01/26 04:17:12;;;;;;;100.82;38.53;;;;;;;;;;4929614;29;20044;-77
2022/01/26 04:19:40;;;;;;;107.03;38.58;;;;;;;;;;4925028;29;20087;-77
2022/01/26 04:22:20;;;;;;;100.05;38.60;;;;;;;;;;4914688;29;20047;-77
2022/01/26 04:24:51;;;;;;;95.10;36.80;;;;;;;;;;4925110;29;20055;-77
2022/01/26 04:27:24;;;;;;;96.60;36.70;;;;;;;;;;4906471;29;20078;-77
2022/01/26 04:29:50;;;;;;;99.40;37.33;;;;;;;;;;4921127;29;20058;-76
2022/01/26 04:32:17;;;;;;;99.95;36.45;;;;;;;;;;4930272;29;20043;-77
2022/01/26 04:34:44;;;;;;;101.75;38.25;;;;;;;;;;4920364;29;20415;-77
2022/01/26 04:37:30;;;;;;;103.03;37.85;;;;;;;;;;4926851;29;20059;-77
2022/01/26 04:40:08;;;;;;;95.97;35.92;;;;;;;;;;4922654;29;20054;-77
2022/01/26 04:42:48;;;;;;;89.60;35.30;;;;;;;;;;4947046;29;20098;-76
2022/01/26 04:45:14;;;;;;;96.20;35.38;;;;;;;;;;4916426;29;20620;-77
2022/01/26 04:47:41;;;;;;;96.38;34.88;;;;;;;;;;4939555;29;20094;-76
2022/01/26 04:50:08;;;;;;;97.22;36.55;;;;;;;;;;4911226;29;20518;-77
2022/01/26 04:52:34;;;;;;;99.50;36.55;;;;;;;;;;4924690;29;20182;-77
2022/01/26 04:55:00;;;;;;;100.63;36.60;;;;;;;;;;4908859;29;20039;-77
2022/01/26 04:57:26;;;;;;;97.25;36.25;;;;;;;;;;4907369;29;20096;-77
2022/01/26 04:59:52;;;;;;;102.15;36.88;;;;;;;;;;4926792;29;20058;-77
2022/01/26 05:02:18;;;;;;;94.55;35.00;;;;;;;;;;4935984;29;20055;-77
2022/01/26 05:04:44;;;;;;;98.63;36.30;;;;;;;;;;4927641;29;20043;-77
2022/01/26 05:07:10;;;;;;;93.05;35.10;;;;;;;;;;4913495;29;20047;-77
2022/01/26 05:09:36;;;;;;;99.90;36.28;;;;;;;;;;4913401;29;20050;-77
2022/01/26 05:12:03;;;;;;;91.93;33.88;;;;;;;;;;4939234;29;20051;-77
2022/01/26 05:14:30;;;;;;;94.75;33.90;;;;;;;;;;4921758;29;20129;-77
2022/01/26 05:16:56;;;;;;;99.63;36.40;;;;;;;;;;4924057;29;20050;-77
2022/01/26 05:19:22;;;;;;;97.05;34.67;;;;;;;;;;4932067;29;20053;-76
2022/01/26 05:21:48;;;;;;;89.63;32.72;;;;;;;;;;4924422;29;20051;-77
2022/01/26 05:24:14;;;;;;;80.45;34.85;;;;;;;;;;4942634;29;20044;-77
2022/01/26 05:26:41;;;;;;;90.88;35.50;;;;;;;;;;4944951;29;20164;-77
2022/01/26 05:29:07;;;;;;;96.97;34.63;;;;;;;;;;4918773;29;20040;-77
2022/01/26 05:31:33;;;;;;;87.55;31.83;;;;;;;;;;4941597;29;20039;-77
2022/01/26 05:34:00;;;;;;;91.18;32.70;;;;;;;;;;4939561;29;20074;-77
2022/01/26 05:36:26;;;;;;;93.78;34.20;;;;;;;;;;4922694;29;20047;-77
2022/01/26 05:38:52;;;;;;;87.78;33.95;;;;;;;;;;4923389;29;20054;-77
2022/01/26 05:41:18;;;;;;;97.00;36.10;;;;;;;;;;4930331;29;20055;-77
2022/01/26 05:43:44;;;;;;;90.25;33.15;;;;;;;;;;4926569;29;20043;-77
2022/01/26 05:46:20;;;;;;;94.43;33.30;;;;;;;;;;4924858;29;20050;-77
2022/01/26 05:48:47;;;;;;;90.47;33.85;;;;;;;;;;4912201;29;20089;-77
2022/01/26 05:51:15;;;;;;;88.80;34.45;;;;;;;;;;4928759;29;20056;-77
2022/01/26 05:53:41;;;;;;;95.28;32.58;;;;;;;;;;4924792;29;20043;-77
2022/01/26 05:56:08;;;;;;;93.10;32.25;;;;;;;;;;4944951;29;20126;-77
2022/01/26 05:58:35;;;;;;;90.00;32.97;;;;;;;;;;4926549;29;20423;-77
2022/01/26 06:01:01;;;;;;;90.65;33.35;;;;;;;;;;4928265;29;20186;-78
2022/01/26 06:03:28;;;;;;;93.55;33.03;;;;;;;;;;4926273;29;20055;-78
2022/01/26 06:05:54;;;;;;;86.05;32.65;;;;;;;;;;4926123;29;21596;-73
2022/01/26 06:08:24;;;;;;;96.78;35.17;;;;;;;;;;4926323;29;20483;-74
2022/01/26 06:10:50;;;;;;;96.03;32.30;;;;;;;;;;4928598;29;20069;-74
2022/01/26 06:13:17;;;;;;;90.70;34.83;;;;;;;;;;4941039;28;20061;-74
2022/01/26 06:15:43;;;;;;;92.75;34.85;;;;;;;;;;4927557;29;20059;-74
2022/01/26 06:18:10;;;;;;;93.47;33.90;;;;;;;;;;4926532;29;20054;-78
2022/01/26 06:20:36;;;;;;;86.80;32.67;;;;;;;;;;4928210;29;20138;-77
2022/01/26 06:23:03;;;;;;;87.13;32.08;;;;;;;;;;4923322;29;20107;-77
2022/01/26 06:25:30;;;;;;;89.43;33.63;;;;;;;;;;4925252;29;20122;-77
2022/01/26 06:27:58;;;;;;;84.95;33.13;;;;;;;;;;4908357;29;20052;-76
2022/01/26 06:30:25;;;;;;;92.57;34.22;;;;;;;;;;4925826;29;20059;-77
2022/01/26 06:32:51;;;;;;;89.43;32.03;;;;;;;;;;4929460;29;20047;-76
2022/01/26 06:35:17;;;;;;;92.05;33.70;;;;;;;;;;4938803;29;20098;-77
2022/01/26 06:37:47;;;;;;;90.88;33.05;;;;;;;;;;4908769;29;20942;-77
2022/01/26 06:40:13;;;;;;;91.93;34.80;;;;;;;;;;4926901;29;20054;-77
2022/01/26 06:42:52;;;;;;;91.78;35.22;;;;;;;;;;4923708;29;20047;-77
2022/01/26 06:45:22;;;;;;;97.50;36.88;;;;;;;;;;4907585;29;20047;-77
2022/01/26 06:50:23;;;;;;;98.63;36.45;;;;;;;;;;4918358;29;20059;-77
2022/01/26 06:52:50;;;;;;;99.78;37.67;;;;;;;;;;4923617;29;20098;-76
2022/01/26 06:55:17;;;;;;;100.80;36.83;;;;;;;;;;4909306;29;20043;-77
2022/01/26 06:57:43;;;;;;;101.50;37.95;;;;;;;;;;4927032;29;20391;-77
2022/01/26 07:00:10;;;;;;;99.20;36.63;;;;;;;;;;4913875;29;20055;-79
2022/01/26 07:02:39;;;;;;;100.93;38.28;;;;;;;;;;4923691;29;20048;-81
2022/01/26 07:05:09;;;;;;;104.00;38.40;;;;;;;;;;4939802;29;20507;-78
2022/01/26 07:07:35;;;;;;;105.20;39.53;;;;;;;;;;4934368;28;20130;-77
2022/01/26 07:10:02;;;;;;;104.78;38.58;;;;;;;;;;4918831;29;20530;-77
2022/01/26 07:12:28;;;;;;;111.57;41.10;;;;;;;;;;4926782;29;20054;-77
2022/01/26 07:22:50;;;;;;;114.35;41.05;;;;;;;;;;4940644;29;20047;-77
2022/01/26 07:25:16;;;;;;;110.70;42.00;;;;;;;;;;4909254;29;20051;-77
2022/01/26 07:27:42;;;;;;;104.28;41.83;;;;;;;;;;4901421;29;20423;-77
2022/01/26 07:30:09;;;;;;;107.35;42.53;;;;;;;;;;4909691;29;20503;-77
2022/01/26 07:32:37;;;;;;;119.95;41.25;;;;;;;;;;4894045;29;20051;-77
2022/01/26 07:35:15;;;;;;;113.63;42.97;;;;;;;;;;4906846;29;20058;-77
2022/01/26 07:37:44;;;;;;;106.03;40.38;;;;;;;;;;4897435;29;20052;-77
2022/01/26 07:40:13;;;;;;;113.90;42.63;;;;;;;;;;4904320;29;20542;-76
2022/01/26 07:42:41;;;;;;;117.57;43.88;;;;;;;;;;4906514;29;20047;-77
2022/01/26 07:45:10;;;;;;;115.85;41.38;;;;;;;;;;4925586;29;20055;-77
2022/01/26 07:47:39;;;;;;;113.72;43.00;;;;;;;;;;4936569;29;20908;-77
2022/01/26 07:50:11;;;;;;;118.22;45.25;;;;;;;;;;4905181;29;20048;-77
2022/01/26 07:52:41;;;;;;;129.35;46.97;;;;;;;;;;4920037;29;20139;-77
2022/01/26 07:55:11;;;;;;;125.18;46.83;;;;;;;;;;4921832;29;20121;-77
2022/01/26 07:57:39;;;;;;;121.55;46.70;;;;;;;;;;4924260;29;20500;-77
2022/01/26 08:00:08;;;;;;;137.93;48.35;;;;;;;;;;4904134;29;20078;-77
2022/01/26 08:02:36;;;;;;;128.68;48.47;;;;;;;;;;4922340;29;20047;-77
2022/01/26 08:05:04;;;;;;;126.40;48.33;;;;;;;;;;4924498;29;20523;-77
2022/01/26 08:07:32;;;;;;;127.50;47.15;;;;;;;;;;4937316;29;20039;-77
2022/01/26 08:10:00;;;;;;;128.57;49.92;;;;;;;;;;4908923;29;20039;-77
2022/01/26 08:12:28;;;;;;;138.95;48.03;;;;;;;;;;4918478;29;20106;-77
2022/01/26 08:14:57;;;;;;;135.52;50.22;;;;;;;;;;4923385;29;20070;-77
2022/01/26 08:17:26;;;;;;;132.85;50.75;;;;;;;;;;4937004;28;20063;-76
2022/01/26 08:19:56;;;;;;;127.28;50.13;;;;;;;;;;4923955;29;20098;-77
2022/01/26 08:22:26;;;;;;;140.48;51.08;;;;;;;;;;4918219;29;20127;-77
2022/01/26 08:24:54;;;;;;;127.28;49.17;;;;;;;;;;4905666;29;20579;-77
2022/01/26 08:27:25;;;;;;;135.63;50.70;;;;;;;;;;4918859;29;20431;-77
2022/01/26 08:30:02;;;;;;;141.32;51.60;;;;;;;;;;4904192;29;20058;-77
2022/01/26 08:32:29;;;;;;;145.73;51.22;;;;;;;;;;4906137;29;20483;-77
2022/01/26 08:34:55;;;;;;;137.43;51.53;;;;;;;;;;4921484;29;20043;-77
2022/01/26 08:37:21;;;;;;;142.07;52.72;;;;;;;;;;4905311;29;20048;-77
2022/01/26 08:39:47;;;;;;;138.43;52.65;;;;;;;;;;4920425;29;20091;-77
2022/01/26 08:42:14;;;;;;;131.65;50.22;;;;;;;;;;4922035;29;20089;-77
2022/01/26 08:44:40;;;;;;;131.10;51.63;;;;;;;;;;4924550;29;20253;-77
2022/01/26 08:47:06;;;;;;;134.75;51.85;;;;;;;;;;4909248;29;20062;-77
2022/01/26 08:49:33;;;;;;;139.45;50.00;;;;;;;;;;4910494;29;20079;-78
2022/01/26 08:51:59;;;;;;;123.85;50.05;;;;;;;;;;4921423;29;20050;-77
2022/01/26 08:54:25;;;;;;;123.97;49.20;;;;;;;;;;4941329;29;20047;-76
2022/01/26 08:56:52;;;;;;;117.32;48.38;;;;;;;;;;4940584;29;20054;-77
2022/01/26 08:59:19;;;;;;;113.95;48.67;;;;;;;;;;4941615;29;20486;-77
2022/01/26 09:01:46;;;;;;;118.35;48.50;;;;;;;;;;4923162;29;20134;-77
2022/01/26 09:04:14;;;;;;;114.05;50.05;;;;;;;;;;4905036;29;20055;-77
2022/01/26 09:06:57;;;;;;;106.40;47.25;;;;;;;;;;4933928;29;20493;-77
2022/01/26 09:09:42;;;;;;;118.63;48.40;;;;;;;;;;4923338;29;20743;-77
2022/01/26 09:12:12;;;;;;;106.40;45.40;;;;;;;;;;4909215;29;20050;-77
2022/01/26 09:14:40;;;;;;;104.47;45.72;;;;;;;;;;4905156;29;20051;-77
2022/01/26 09:17:11;;;;;;;109.05;44.88;;;;;;;;;;4925122;29;20318;-77
2022/01/26 09:19:42;;;;;;;110.13;47.03;;;;;;;;;;4916113;29;20514;-77
2022/01/26 09:22:12;;;;;;;108.35;45.90;;;;;;;;;;4930366;29;20055;-77
2022/01/26 09:24:41;;;;;;;99.88;42.97;;;;;;;;;;4927588;29;20090;-78
2022/01/26 09:27:12;;;;;;;102.43;45.20;;;;;;;;;;4922912;29;20044;-77
2022/01/26 09:29:40;;;;;;;110.85;45.55;;;;;;;;;;4930997;29;20145;-77
2022/01/26 09:32:08;;;;;;;103.35;45.97;;;;;;;;;;4924449;29;20043;-77
2022/01/26 09:34:37;;;;;;;103.55;45.55;;;;;;;;;;4909703;29;20487;-76
2022/01/26 09:37:05;;;;;;;98.68;42.78;;;;;;;;;;4928997;29;20064;-73
2022/01/26 09:39:31;;;;;;;98.00;44.85;;;;;;;;;;4910434;29;20134;-75
2022/01/26 09:41:57;;;;;;;106.68;45.40;;;;;;;;;;4931217;29;20054;-75
2022/01/26 09:44:24;;;;;;;106.90;45.22;;;;;;;;;;4916347;29;20495;-75
2022/01/26 09:46:50;;;;;;;102.88;44.90;;;;;;;;;;4916799;29;20054;-75
2022/01/26 09:49:17;;;;;;;104.85;49.30;;;;;;;;;;4926481;29;20507;-74
2022/01/26 09:51:46;;;;;;;94.68;42.72;;;;;;;;;;4912549;29;20059;-76
2022/01/26 09:54:15;;;;;;;101.13;43.47;;;;;;;;;;4947286;28;20510;-76
2022/01/26 09:56:42;;;;;;;103.18;43.78;;;;;;;;;;4915344;29;20106;-76
2022/01/26 09:59:08;;;;;;;91.07;42.65;;;;;;;;;;4911189;29;20055;-76
2022/01/26 10:01:41;;;;;;;98.72;42.72;;;;;;;;;;4928584;29;20039;-75
2022/01/26 10:04:07;;;;;;;101.78;42.83;;;;;;;;;;4911694;29;20134;-76
2022/01/26 10:06:35;;;;;;;97.85;43.00;;;;;;;;;;4944067;29;20053;-76
2022/01/26 10:17:29;;;;;;;88.45;39.33;;;;;;;;;;4932155;29;20051;-77
2022/01/26 10:20:00;;;;;;;98.30;43.13;;;;;;;;;;4929808;29;20058;-76
2022/01/26 10:22:34;;;;;;;97.78;42.20;;;;;;;;;;4925454;29;20152;-75
2022/01/26 10:25:08;;;;;;;99.95;42.88;;;;;;;;;;4929767;29;20368;-75
2022/01/26 10:27:35;;;;;;;89.78;42.10;;;;;;;;;;4931548;29;20058;-75
2022/01/26 10:30:04;;;;;;;98.28;41.35;;;;;;;;;;4900338;29;20067;-75
2022/01/26 10:32:37;;;;;;;88.07;39.30;;;;;;;;;;4915420;29;20056;-75
2022/01/26 10:35:05;;;;;;;89.72;38.67;;;;;;;;;;4939742;29;20126;-75
2022/01/26 10:37:32;;;;;;;88.93;36.97;;;;;;;;;;4908007;29;20071;-77
2022/01/26 10:40:13;;;;;;;80.03;37.08;;;;;;;;;;4930062;29;20043;-78
2022/01/26 10:42:39;;;;;;;83.03;37.22;;;;;;;;;;4928935;29;20476;-81
2022/01/26 10:45:16;;;;;;;85.15;35.25;;;;;;;;;;4908759;29;20626;-77
2022/01/26 10:47:46;;;;;;;84.20;36.67;;;;;;;;;;4920403;29;20499;-76
2022/01/26 10:53:26;;;;;;;78.72;34.55;;;;;;;;;;4906595;29;20522;-75
2022/01/26 10:55:52;;;;;;;;;;;;;;;;;;4936209;29;20438;-76
2022/01/26 10:58:20;;;;;;;80.15;35.33;;;;;;;;;;4904559;29;19927;-76
2022/01/26 11:00:46;;;;;;;78.53;36.33;;;;;;;;;;4930746;29;20047;-76
2022/01/26 11:03:12;;;;;;;81.55;35.65;;;;;;;;;;4913488;29;20395;-75
2022/01/26 11:05:38;;;;;;;86.20;35.97;;;;;;;;;;4930173;29;20598;-75
2022/01/26 11:08:04;;;;;;;83.65;36.38;;;;;;;;;;4930017;29;20109;-76
2022/01/26 11:10:36;;;;;;;84.32;37.40;;;;;;;;;;4917643;29;20039;-76
2022/01/26 11:13:03;;;;;;;87.35;35.30;;;;;;;;;;4937906;28;20757;-76
2022/01/26 11:15:29;;;;;;;90.45;35.42;;;;;;;;;;4922396;29;20083;-75
2022/01/26 11:18:05;;;;;;;80.22;37.00;;;;;;;;;;4907628;29;20452;-76
2022/01/26 11:20:33;;;;;;;92.90;38.00;;;;;;;;;;4925089;29;20143;-76
2022/01/26 11:23:00;;;;;;;92.10;38.28;;;;;;;;;;4902182;29;20104;-75
2022/01/26 11:25:28;;;;;;;90.35;37.65;;;;;;;;;;4892679;29;20082;-76
2022/01/26 11:27:55;;;;;;;94.82;40.22;;;;;;;;;;4907211;29;20047;-75
2022/01/26 11:30:25;;;;;;;97.90;40.38;;;;;;;;;;4926669;29;20043;-76
2022/01/26 11:32:55;;;;;;;102.57;40.30;;;;;;;;;;4923913;29;20492;-76
2022/01/26 11:35:23;;;;;;;99.75;40.40;;;;;;;;;;4922202;29;20055;-76
2022/01/26 11:38:03;;;;;;;94.05;38.90;;;;;;;;;;4943088;29;20503;-77
2022/01/26 11:46:26;;;;;;;93.22;39.88;;;;;;;;;;4922767;29;20115;-83
2022/01/26 11:49:01;;;;;;;101.78;42.67;;;;;;;;;;4944018;29;20138;-81
2022/01/26 11:51:38;;;;;;;93.07;40.15;;;;;;;;;;4910096;29;20067;-77
2022/01/26 11:54:12;;;;;;;97.20;41.28;;;;;;;;;;4922087;29;20044;-79
2022/01/26 11:56:38;;;;;;;;;;;;;;;;;;4940014;29;20055;-80
2022/01/26 11:59:04;;;;;;;99.18;39.42;;;;;;;;;;4923980;29;20000;-78
2022/01/26 12:01:40;;;;;;;92.95;38.03;;;;;;;;;;4934882;29;20146;-79
2022/01/26 12:04:15;;;;;;;88.30;38.25;;;;;;;;;;4923532;29;20047;-77
2022/01/26 12:06:48;;;;;;;91.70;39.05;;;;;;;;;;4919905;29;20056;-79
2022/01/26 12:09:14;;;;;;;106.37;38.73;;;;;;;;;;4920104;29;20048;-77
2022/01/26 12:11:41;;;;;;;97.95;42.00;;;;;;;;;;4932247;29;20069;-76
2022/01/26 12:14:12;;;;;;;103.25;40.45;;;;;;;;;;4924117;29;20059;-77
2022/01/26 12:16:42;;;;;;;106.43;41.00;;;;;;;;;;4907168;29;20095;-77
2022/01/26 12:19:26;;;;;;;100.22;40.50;;;;;;;;;;4935445;29;20152;-77
2022/01/26 12:38:18;;;;;;;100.93;40.63;;;;;;;;;;4917170;29;20047;-77
2022/01/26 12:43:35;;;;;;;90.22;38.20;;;;;;;;;;4919427;29;20158;-77
2022/01/26 12:46:02;;;;;;;91.88;37.50;;;;;;;;;;4922629;29;20059;-77
2022/01/26 12:48:29;;;;;;;93.43;37.42;;;;;;;;;;4942923;29;20047;-76
2022/01/26 12:50:56;;;;;;;94.57;37.83;;;;;;;;;;4930179;29;20475;-77
2022/01/26 12:53:23;;;;;;;81.13;36.13;;;;;;;;;;4930984;29;20040;-76
2022/01/26 12:55:53;;;;;;;88.80;36.58;;;;;;;;;;4934725;29;20158;-77
2022/01/26 12:58:36;;;;;;;82.13;37.17;;;;;;;;;;4920999;29;20468;-75
2022/01/26 13:01:06;;;;;;;86.30;35.95;;;;;;;;;;4938687;29;20126;-79
2022/01/26 13:03:34;;;;;;;87.07;37.80;;;;;;;;;;4927912;29;20043;-81
2022/01/26 13:06:07;;;;;;;90.07;38.15;;;;;;;;;;4929843;29;20050;-76
2022/01/26 13:08:40;;;;;;;84.03;36.72;;;;;;;;;;4939553;29;20047;-81
2022/01/26 13:11:06;;;;;;;80.28;33.53;;;;;;;;;;4920529;29;20079;-77
2022/01/26 13:13:36;;;;;;;81.75;35.88;;;;;;;;;;4921201;29;20170;-77
2022/01/26 13:16:16;;;;;;;81.60;33.72;;;;;;;;;;4922658;29;20083;-77
2022/01/26 13:19:40;;;;;;;84.40;34.20;;;;;;;;;;4917376;29;20094;-78
2022/01/26 13:26:38;;;;;;;77.85;34.08;;;;;;;;;;4948365;28;20059;-79
2022/01/26 13:29:26;;;;;;;75.65;35.08;;;;;;;;;;4916518;29;20048;-77
2022/01/26 13:37:44;;;;;;;81.05;34.45;;;;;;;;;;4907066;29;20051;-77
2022/01/26 13:45:49;;;;;;;69.15;30.20;;;;;;;;;;4927956;29;20051;-80
2022/01/26 13:51:16;;;;;;;80.35;33.60;;;;;;;;;;4880925;29;20113;-84
2022/01/26 13:53:52;;;;;;;74.03;33.20;;;;;;;;;;4920375;29;20047;-83
2022/01/26 13:56:33;;;;;;;69.60;30.60;;;;;;;;;;4912668;29;20058;-83
2022/01/26 13:59:10;;;;;;;70.10;30.13;;;;;;;;;;4923305;29;20111;-83
2022/01/26 14:01:41;;;;;;;72.07;32.15;;;;;;;;;;4904992;29;20122;-84
2022/01/26 14:04:07;;;;;;;69.95;31.95;;;;;;;;;;4930792;29;20059;-84
2022/01/26 14:06:34;;;;;;;74.30;32.55;;;;;;;;;;4925634;29;20183;-82
2022/01/26 14:09:00;;;;;;;69.78;30.73;;;;;;;;;;4927558;29;20062;-84
2022/01/26 14:11:26;;;;;;;66.20;31.60;;;;;;;;;;4892760;29;20192;-82
2022/01/26 14:13:56;;;;;;;69.57;30.80;;;;;;;;;;4912391;29;20063;-82
2022/01/26 14:16:24;;;;;;;73.13;30.85;;;;;;;;;;4894016;29;20052;-82
2022/01/26 14:19:12;;;;;;;71.50;31.10;;;;;;;;;;4920593;29;20074;-82
2022/01/26 14:24:28;;;;;;;64.32;31.02;;;;;;;;;;4926785;29;20040;-88
2022/01/26 14:26:58;;;;;;;71.53;31.00;;;;;;;;;;4920763;29;20086;-78
2022/01/26 14:29:38;;;;;;;67.50;32.72;;;;;;;;;;4915842;29;20429;-83
2022/01/26 14:54:03;;;;;;;69.35;30.45;;;;;;;;;;4888965;29;20070;-83
2022/01/26 15:34:39;;;;;;;74.40;33.08;;;;;;;;;;4923018;29;20685;-79
2022/01/26 15:42:20;;;;;;;71.90;32.35;;;;;;;;;;4919448;29;20060;-78
2022/01/26 15:44:51;;;;;;;75.72;33.17;;;;;;;;;;4927708;29;20048;-85
2022/01/26 15:50:08;;;;;;;76.13;32.45;;;;;;;;;;4922870;29;20346;-80
2022/01/26 15:52:59;;;;;;;85.22;35.38;;;;;;;;;;4921540;29;20074;-80
2022/01/26 16:06:11;;;;;;;76.60;32.45;;;;;;;;;;4929109;29;20055;-80
2022/01/26 16:17:00;;;;;;;86.03;33.17;;;;;;;;;;4949791;28;20043;-80
2022/01/26 18:04:06;;;;;;;64.22;26.27;;;;;;;;;;4922125;29;20073;-76
2022/01/26 18:17:19;;;;;;;53.55;25.65;;;;;;;;;;4934993;28;20051;-80
2022/01/26 18:46:49;;;;;;;48.30;22.85;;;;;;;;;;4919316;29;20122;-78
2022/01/26 18:49:30;;;;;;;51.47;22.88;;;;;;;;;;4924696;29;20060;-79
2022/01/26 18:51:59;;;;;;;44.55;23.33;;;;;;;;;;4906564;29;20043;-78
2022/01/26 18:54:35;;;;;;;50.75;24.60;;;;;;;;;;4918947;29;20452;-80
2022/01/26 18:57:04;;;;;;;48.50;23.70;;;;;;;;;;4931404;29;20053;-82
2022/01/26 18:59:32;;;;;;;46.92;23.80;;;;;;;;;;4921637;29;20277;-82
2022/01/26 19:02:00;;;;;;;49.28;24.80;;;;;;;;;;4906056;29;20134;-82
2022/01/26 19:04:42;;;;;;;47.92;22.95;;;;;;;;;;4920211;29;20048;-83
2022/01/26 19:07:11;;;;;;;52.22;22.88;;;;;;;;;;4921414;29;20133;-81
2022/01/26 19:09:40;;;;;;;48.30;23.25;;;;;;;;;;4906892;29;20048;-82
2022/01/26 19:12:12;;;;;;;47.88;22.88;;;;;;;;;;4917681;29;20047;-82
2022/01/26 19:14:44;;;;;;;50.28;23.30;;;;;;;;;;4902790;29;20094;-80
2022/01/26 19:17:27;;;;;;;48.95;23.27;;;;;;;;;;4923747;29;20055;-78
2022/01/26 19:42:08;;;;;;;50.05;25.85;;;;;;;;;;4924947;29;20102;-77
2022/01/26 19:44:07;;;;;;;46.15;24.73;;;;;;;;;;4930144;29;20055;-78
2022/01/26 19:52:15;;;;;;;51.08;25.17;;;;;;;;;;4881911;29;20051;-79
2022/01/26 19:54:46;;;;;;;51.45;25.17;;;;;;;;;;4880158;29;20056;-78
2022/01/26 19:57:14;;;;;;;55.95;27.17;;;;;;;;;;4885321;29;20078;-77
2022/01/26 19:59:42;;;;;;;53.83;24.17;;;;;;;;;;4924725;29;20040;-78
2022/01/26 20:02:10;;;;;;;59.78;25.70;;;;;;;;;;4942706;28;20059;-77
2022/01/26 20:04:39;;;;;;;52.35;25.67;;;;;;;;;;4923118;29;20061;-77
2022/01/26 20:07:14;;;;;;;53.95;26.80;;;;;;;;;;4905408;29;20066;-78
2022/01/26 20:09:47;;;;;;;48.25;23.55;;;;;;;;;;4918704;29;20403;-78
2022/01/26 20:12:39;;;;;;;49.27;24.93;;;;;;;;;;4919245;29;20056;-78
2022/01/26 20:15:06;;;;;;;58.75;26.85;;;;;;;;;;4919382;29;20333;-81
2022/01/26 20:17:35;;;;;;;63.45;25.88;;;;;;;;;;4937259;29;20054;-82
2022/01/26 20:20:04;;;;;;;55.55;26.23;;;;;;;;;;4924452;29;20514;-83
2022/01/26 20:22:32;;;;;;;52.50;25.20;;;;;;;;;;4928343;28;20059;-82
2022/01/26 20:25:01;;;;;;;58.05;25.80;;;;;;;;;;4923764;29;20135;-81
2022/01/26 20:27:29;;;;;;;59.30;25.08;;;;;;;;;;4932873;29;20066;-81
2022/01/26 20:30:02;;;;;;;57.05;25.02;;;;;;;;;;4920002;29;20357;-81
2022/01/26 20:32:29;;;;;;;57.80;24.70;;;;;;;;;;4925873;28;20069;-81
2022/01/26 20:34:56;;;;;;;57.83;25.50;;;;;;;;;;4925949;29;20102;-83
2022/01/26 20:37:22;;;;;;;65.78;25.42;;;;;;;;;;4909811;29;20048;-84
2022/01/26 20:39:48;;;;;;;51.78;25.15;;;;;;;;;;4923546;29;20157;-82
2022/01/26 20:42:14;;;;;;;64.22;27.00;;;;;;;;;;4906717;29;20053;-79
2022/01/26 20:44:40;;;;;;;54.72;25.17;;;;;;;;;;4910524;28;20119;-83
2022/01/26 20:47:06;;;;;;;51.78;25.08;;;;;;;;;;4905287;29;20448;-85
2022/01/26 20:49:32;;;;;;;55.95;24.83;;;;;;;;;;4918579;29;20067;-83
2022/01/26 20:51:58;;;;;;;56.13;25.48;;;;;;;;;;4924205;28;21434;-84
2022/01/26 20:54:24;;;;;;;55.70;25.13;;;;;;;;;;4904459;29;20047;-83
2022/01/26 20:56:50;;;;;;;51.15;25.40;;;;;;;;;;4911114;29;20131;-88
2022/01/26 20:59:17;;;;;;;60.30;25.30;;;;;;;;;;4921910;29;20437;-81
2022/01/26 21:01:43;;;;;;;60.22;26.63;;;;;;;;;;4924483;29;20127;-83
2022/01/26 21:04:09;;;;;;;59.60;27.13;;;;;;;;;;4924783;29;20425;-86
2022/01/26 21:06:35;;;;;;;56.17;25.35;;;;;;;;;;4919583;29;20087;-83
2022/01/26 21:09:01;;;;;;;59.42;26.73;;;;;;;;;;4908546;28;20060;-83